CA-0197 weather

CLOSED Kotcho Airport
British Columbia, Canada

Public forecast

Using degrees Celsius for public forecast. Weather courtesy of forecast.io.

Closest aviation weather report (METAR) to Kotcho Airport

Closest report is Fort Nelson Airport, 44.3 nm (82.0 km) WSW. Retrieved 2019/10/23 13:00 UTC (59 minutes ago):

CYYE 231300Z 19006KT 15SM SKC M04/M04 A3028 RMK SLP281

Closest aviation forecast (TAF) to Kotcho Airport

Closest forecast is Fort Nelson Airport, 44.3 nm (82.0 km) WSW. Retrieved 2019/10/23 13:39 UTC (20 minutes ago):

TAF TAF CYYE 231238Z 2313/2401 VRB03KT P6SM SKC PROB30 2313/2315 1SM BR BECMG 2318/2320 15007KT SCT160 RMK NXT FCST BY 231900Z